Atka, AK (99547)

6:50 PM HADT on October 01, 2014 (GMT -0900)
Atka | Change Station
CLOSE
Current Station
Airport
Location: Atka,
Elevation: 56 ft
Nearby Weather Stations

Elev 56 ft 52.22 °N, 174.21 °W | Updated 14 minutes ago

Overcast
Overcast
52 °F
Feels Like 52 °F
N
12
Wind Variable Wind from ENE
Gusts 16 mph

Today
High -- | Low -- °F
--% Chance of Precip.
Yesterday
High -- | Low -- °F
Precip. -- in
8:39 AM 8:14 PM
First Quarter, 54% visible
Pressure 29.74 in
Visibility 10.0 miles
Clouds Overcast 3400 ft
Dew Point 41 °F
Humidity 67%
Rainfall 0.00 in
Snow Depth 0 in , 5 in , 0 in
UV 0 out of 12
Pollen Not available.
Air Quality Not available.
Flu Activity Not available.
METAR PAAK 020336Z 07010G14KT 10SM OVC034 11/05 A2974 RMK AO1

More Conditions Fewer Conditions

Pressure 29.74 in
Visibility 10.0 miles
Clouds Overcast 3400 ft
Dew Point 41 °F
Humidity 67%
Rainfall 0.00 in
Snow Depth 0 in , 5 in , 0 in
UV 0 out of 12
Pollen Not available.
Air Quality Not available.
Flu Activity Not available.
METAR PAAK 020336Z 07010G14KT 10SM OVC034 11/05 A2974 RMK AO1

More Conditions Fewer Conditions

10-Day Weather Forecast

Almanac

Astronomy

Oct. 01, 2014 Rise Set
Actual Time 8:39 AM HADT 8:14 PM HADT
Civil Twilight 8:05 AM HADT 8:48 PM HADT
Nautical Twilight 7:26 AM HADT 9:27 PM HADT
Astronomical Twilight 6:45 AM HADT 10:07 PM HADT
Moon 4:23 PM HADT (10/1) 12:27 AM HADT (10/1)
Length of Visible Light 12h 42m
Length of Day
11h 35m
Tomorrow will be 4m 0s shorter.
First Quarter, 54% of the Moon is Illuminated
Today
First Quarter
Oct 8
Full
Oct 15
Last Quarter
Oct 23
New
Oct 30
First Quarter

Today's Extremes

State Highs State Lows

Community

WunderPhotos

Upload Photos

1,758,170 photos uploaded!

Nearby

Snow Depth

Station Depth Elevation
Summit Creek 0 in 1400 ft
Munson Ridge 5 in 3100 ft
Grouse Creek Divide 0 in 700 ft
Cooper Lake 0 in 1200 ft
Fort Yukon 1 in 430 ft

Earthquake Activity

City Distance Mag. Time & Date
No recent earthquake activity has been reported nearby.
Minimum magnitude displayed is 2.5.

Coastal Water Temperatures

Place Temperature
No Stations Reporting

Nearby Weather Stations